Time;durP1;ratioP1;P1;durP2;ratioP2;P2;SDS_P1;SDS_P2;PMS_P1;PMS_P2;Temp;Humidity;BMP_temperature;BMP_pressure;BME280_temperature;BME280_humidity;BME280_pressure;Samples;Min_cycle;Max_cycle;Signal;HPM_P1;HPM_P2
2023/08/09 00:00:13;;;;;;;;;;;24.10;55.20;;;;;;3055510;19;970;-76
2023/08/09 00:01:13;;;;;;;;;;;23.50;54.90;;;;;;3054873;19;5858;-74
2023/08/09 00:02:15;;;;;;;;;;;23.50;55.00;;;;;;3055423;19;4829;-74
2023/08/09 00:03:16;;;;;;;;;;;23.50;55.00;;;;;;3055368;19;5168;-75
2023/08/09 00:04:16;;;;;;;;;;;23.50;54.90;;;;;;3053710;19;4448;-75
2023/08/09 00:05:17;;;;;;;;;;;23.50;54.90;;;;;;3054876;19;4569;-76
2023/08/09 00:06:17;;;;;;;;;;;23.40;54.90;;;;;;3055531;19;5274;-74
2023/08/09 00:07:18;;;;;;;;;;;23.50;55.30;;;;;;3052229;19;4936;-77
2023/08/09 00:08:19;;;;;;;;;;;23.40;55.00;;;;;;3054443;19;5496;-72
2023/08/09 00:09:21;;;;;;;;;;;23.50;55.10;;;;;;3052956;19;5392;-72
2023/08/09 00:10:21;;;;;;;;;;;23.40;55.00;;;;;;3052812;19;4678;-72
2023/08/09 00:11:22;;;;;;;;;;;23.50;55.10;;;;;;3052401;19;5485;-72
2023/08/09 00:12:23;;;;;;;;;;;23.40;55.00;;;;;;3052215;19;4647;-73
2023/08/09 00:13:24;;;;;;;;;;;23.40;55.00;;;;;;3052681;19;4898;-72
2023/08/09 00:14:25;;;;;;;;;;;23.40;55.10;;;;;;3049875;19;5209;-72
2023/08/09 00:15:25;;;;;;;;;;;23.40;55.00;;;;;;3053800;19;5460;-72
2023/08/09 00:16:26;;;;;;;;;;;22.40;54.50;;;;;;3053439;19;5258;-72
2023/08/09 00:17:27;;;;;;;;;;;23.40;55.00;;;;;;3051247;19;5138;-73
2023/08/09 00:18:28;;;;;;;;;;;23.40;55.00;;;;;;3053596;19;5484;-72
2023/08/09 00:19:28;;;;;;;;;;;23.50;55.10;;;;;;3052415;19;5340;-72
2023/08/09 00:20:29;;;;;;;;;;;23.60;55.20;;;;;;3052007;19;5337;-72
2023/08/09 00:21:29;;;;;;;;;;;23.40;55.20;;;;;;3052528;19;5408;-72
2023/08/09 00:22:30;;;;;;;;;;;23.40;55.20;;;;;;3051276;19;5383;-72
2023/08/09 00:23:31;;;;;;;;;;;23.40;55.10;;;;;;3050211;19;5310;-72
2023/08/09 00:24:32;;;;;;;;;;;24.10;55.50;;;;;;3053282;19;4666;-72
2023/08/09 00:25:33;;;;;;;;;;;23.40;55.10;;;;;;3052226;19;5095;-72
2023/08/09 00:26:34;;;;;;;;;;;23.40;55.20;;;;;;3049491;19;5310;-73
2023/08/09 00:27:35;;;;;;;;;;;23.40;55.20;;;;;;3052776;19;5544;-71
2023/08/09 00:28:35;;;;;;;;;;;23.30;55.10;;;;;;3054091;19;5294;-72
2023/08/09 00:29:36;;;;;;;;;;;23.40;55.20;;;;;;3054742;19;5382;-71
2023/08/09 00:30:37;;;;;;;;;;;23.40;55.20;;;;;;3053294;19;5720;-71
2023/08/09 00:31:37;;;;;;;;;;;23.40;55.30;;;;;;3053892;19;4842;-73
2023/08/09 00:32:38;;;;;;;;;;;23.60;55.40;;;;;;3053941;19;5174;-71
2023/08/09 00:33:39;;;;;;;;;;;23.30;55.20;;;;;;3054055;19;4810;-73
2023/08/09 00:34:40;;;;;;;;;;;23.40;55.30;;;;;;3052972;19;5295;-72
2023/08/09 00:35:40;;;;;;;;;;;23.40;55.30;;;;;;3054213;19;5312;-71
2023/08/09 00:36:41;;;;;;;;;;;23.20;55.20;;;;;;3054077;19;5460;-72
2023/08/09 00:37:42;;;;;;;;;;;23.40;55.30;;;;;;3054386;19;5428;-72
2023/08/09 00:38:43;;;;;;;;;;;23.30;55.30;;;;;;3052790;19;5240;-69
2023/08/09 00:39:43;;;;;;;;;;;23.30;55.40;;;;;;3052694;19;5398;-70
2023/08/09 00:40:44;;;;;;;;;;;23.40;55.40;;;;;;3050903;19;5400;-70
2023/08/09 00:41:45;;;;;;;;;;;23.40;55.30;;;;;;3051160;19;5467;-70
2023/08/09 00:42:46;;;;;;;;;;;23.50;55.40;;;;;;3046603;19;5418;-68
2023/08/09 00:43:47;;;;;;;;;;;23.30;55.30;;;;;;3049110;19;5690;-70
2023/08/09 00:44:47;;;;;;;;;;;24.20;55.90;;;;;;3052048;19;5207;-70
2023/08/09 00:45:48;;;;;;;;;;;23.10;55.30;;;;;;3052410;19;5540;-70
2023/08/09 00:46:49;;;;;;;;;;;23.40;55.40;;;;;;3050739;19;5240;-71
2023/08/09 00:47:50;;;;;;;;;;;23.30;55.60;;;;;;3049609;19;5274;-71
2023/08/09 00:48:51;;;;;;;;;;;23.40;55.40;;;;;;3049631;19;5558;-70
2023/08/09 00:49:51;;;;;;;;;;;23.40;55.40;;;;;;3051864;19;5778;-71
2023/08/09 00:50:53;;;;;;;;;;;23.30;55.40;;;;;;3051573;19;6316;-70
2023/08/09 00:51:53;;;;;;;;;;;23.30;55.50;;;;;;3050951;19;5355;-71
2023/08/09 00:52:54;;;;;;;;;;;23.30;55.60;;;;;;3052209;19;5214;-69
2023/08/09 00:53:55;;;;;;;;;;;23.30;55.60;;;;;;3051396;19;5243;-71
2023/08/09 00:54:55;;;;;;;;;;;23.30;55.50;;;;;;3051370;19;5216;-71
2023/08/09 00:55:56;;;;;;;;;;;23.30;55.50;;;;;;3051613;19;6511;-70
2023/08/09 00:56:57;;;;;;;;;;;23.30;55.50;;;;;;3052309;19;5349;-71
2023/08/09 00:57:57;;;;;;;;;;;23.30;55.50;;;;;;3049393;19;4729;-71
2023/08/09 00:58:58;;;;;;;;;;;23.30;55.60;;;;;;3051404;19;5350;-71
2023/08/09 00:59:58;;;;;;;;;;;23.30;55.60;;;;;;3048816;19;5396;-71
2023/08/09 01:00:59;;;;;;;;;;;23.30;55.50;;;;;;3050585;19;4843;-72
2023/08/09 01:02:00;;;;;;;;;;;23.30;55.60;;;;;;3051280;19;5603;-72
2023/08/09 01:03:00;;;;;;;;;;;23.30;55.60;;;;;;3052906;19;5378;-72
2023/08/09 01:04:01;;;;;;;;;;;23.60;55.80;;;;;;3051332;19;5400;-72
2023/08/09 01:05:04;;;;;;;;;;;23.30;55.60;;;;;;3051583;19;4840;-72
2023/08/09 01:06:42;;;;;;;;;;;23.30;55.70;;;;;;3050734;19;5242;-73
2023/08/09 01:07:53;;;;;;;;;;;23.30;55.70;;;;;;2949141;19;2004634;-70
2023/08/09 01:09:17;;;;;;;;;;;23.30;55.70;;;;;;3051354;19;4681;-72
2023/08/09 01:10:40;;;;;;;;;;;23.30;55.70;;;;;;2948851;19;2005212;-72
2023/08/09 01:11:53;;;;;;;;;;;23.30;55.80;;;;;;3053719;19;6401;-72
2023/08/09 01:12:59;;;;;;;;;;;23.30;55.80;;;;;;3053356;19;5421;-72
2023/08/09 01:13:59;;;;;;;;;;;23.30;55.80;;;;;;3052541;19;4730;-70
2023/08/09 01:15:00;;;;;;;;;;;23.90;56.10;;;;;;3053888;19;4977;-71
2023/08/09 01:16:01;;;;;;;;;;;23.30;55.80;;;;;;3049028;19;5278;-70
2023/08/09 01:17:02;;;;;;;;;;;23.70;56.10;;;;;;3048298;19;5308;-71
2023/08/09 01:18:03;;;;;;;;;;;23.30;55.90;;;;;;3046225;19;5382;-70
2023/08/09 01:19:08;;;;;;;;;;;23.30;55.90;;;;;;3059563;19;4893;-73
2023/08/09 01:20:12;;;;;;;;;;;23.30;55.90;;;;;;3058444;19;5395;-72
2023/08/09 01:21:13;;;;;;;;;;;23.30;55.90;;;;;;3058756;19;4815;-73
2023/08/09 01:22:26;;;;;;;;;;;23.30;55.90;;;;;;3058574;19;5409;-74
2023/08/09 01:23:32;;;;;;;;;;;23.40;56.00;;;;;;3058976;19;5291;-72
2023/08/09 01:24:33;;;;;;;;;;;23.30;55.90;;;;;;3058967;19;5358;-72
2023/08/09 01:25:33;;;;;;;;;;;23.30;55.90;;;;;;3059881;19;5408;-73
2023/08/09 01:26:38;;;;;;;;;;;23.30;56.00;;;;;;3059506;19;4842;-73
2023/08/09 01:27:39;;;;;;;;;;;23.30;56.00;;;;;;3059448;19;4687;-73
2023/08/09 01:28:40;;;;;;;;;;;24.20;56.60;;;;;;3059793;19;5140;-73
2023/08/09 01:29:40;;;;;;;;;;;24.30;56.70;;;;;;3060078;19;4904;-73
2023/08/09 01:30:41;;;;;;;;;;;23.30;56.10;;;;;;3057606;19;5364;-73
2023/08/09 01:31:42;;;;;;;;;;;23.30;56.10;;;;;;3059170;19;4633;-72
2023/08/09 01:32:43;;;;;;;;;;;23.50;56.30;;;;;;3058245;19;4674;-72
2023/08/09 01:33:44;;;;;;;;;;;23.20;56.00;;;;;;3058870;19;5204;-73
2023/08/09 01:34:44;;;;;;;;;;;23.30;56.10;;;;;;3057848;19;5442;-73
2023/08/09 01:35:49;;;;;;;;;;;23.30;56.30;;;;;;3057642;19;5093;-74
2023/08/09 01:36:51;;;;;;;;;;;23.20;56.10;;;;;;3056603;19;5782;-72
2023/08/09 01:37:54;;;;;;;;;;;23.20;56.10;;;;;;3058671;19;5389;-72
2023/08/09 01:39:06;;;;;;;;;;;23.20;56.20;;;;;;3059607;19;5266;-73
2023/08/09 01:40:08;;;;;;;;;;;23.20;56.20;;;;;;3058056;19;5003;-74
2023/08/09 01:41:09;;;;;;;;;;;23.20;56.50;;;;;;3058550;19;4803;-72
2023/08/09 01:42:10;;;;;;;;;;;23.70;56.40;;;;;;3057651;19;5814;-72
2023/08/09 01:43:11;;;;;;;;;;;22.80;55.90;;;;;;3057949;19;4721;-73
2023/08/09 01:44:14;;;;;;;;;;;23.20;56.30;;;;;;3058651;19;5102;-74
2023/08/09 01:45:15;;;;;;;;;;;23.20;56.30;;;;;;3058278;19;4323;-73
2023/08/09 01:46:16;;;;;;;;;;;23.20;56.20;;;;;;3058904;19;5512;-72
2023/08/09 01:47:17;;;;;;;;;;;23.20;56.30;;;;;;3058936;19;5449;-72
2023/08/09 01:48:21;;;;;;;;;;;23.20;56.30;;;;;;3057328;19;5307;-78
2023/08/09 01:49:23;;;;;;;;;;;23.20;56.30;;;;;;3059061;19;5412;-80
2023/08/09 01:50:29;;;;;;;;;;;23.20;56.30;;;;;;3036882;19;5275;-80
2023/08/09 01:51:31;;;;;;;;;;;23.20;56.50;;;;;;3058073;19;4678;-81
2023/08/09 01:52:32;;;;;;;;;;;23.20;56.30;;;;;;3059251;19;5308;-80
2023/08/09 01:53:33;;;;;;;;;;;23.20;56.40;;;;;;3059253;19;4663;-80
2023/08/09 01:54:34;;;;;;;;;;;23.20;56.50;;;;;;3061192;19;5411;-80
2023/08/09 01:55:34;;;;;;;;;;;23.20;56.40;;;;;;3059084;19;4820;-80
2023/08/09 01:56:35;;;;;;;;;;;23.20;56.40;;;;;;3058898;19;6476;-78
2023/08/09 01:57:36;;;;;;;;;;;23.20;56.40;;;;;;3059146;19;5466;-79
2023/08/09 01:58:37;;;;;;;;;;;23.20;56.40;;;;;;3056964;19;5295;-80
2023/08/09 01:59:38;;;;;;;;;;;23.20;56.50;;;;;;3058390;19;5294;-80
2023/08/09 02:00:40;;;;;;;;;;;23.20;57.00;;;;;;3059737;19;5384;-79
2023/08/09 02:01:41;;;;;;;;;;;23.20;56.40;;;;;;3058776;19;4839;-78
2023/08/09 02:02:42;;;;;;;;;;;23.20;56.40;;;;;;3058071;19;5499;-81
2023/08/09 02:03:43;;;;;;;;;;;24.00;56.90;;;;;;3058829;19;4836;-79
2023/08/09 02:04:44;;;;;;;;;;;23.20;56.50;;;;;;3058931;19;5307;-80
2023/08/09 02:05:47;;;;;;;;;;;23.20;56.40;;;;;;3058617;19;5317;-79
2023/08/09 02:06:49;;;;;;;;;;;23.20;57.10;;;;;;3059281;19;5162;-80
2023/08/09 02:07:50;;;;;;;;;;;23.20;56.50;;;;;;3056993;19;5421;-80
2023/08/09 02:08:51;;;;;;;;;;;23.20;56.50;;;;;;3056876;19;5342;-80
2023/08/09 02:09:52;;;;;;;;;;;23.20;56.50;;;;;;3059416;19;5404;-79
2023/08/09 02:10:53;;;;;;;;;;;23.20;56.50;;;;;;3057795;19;5372;-81
2023/08/09 02:11:54;;;;;;;;;;;23.10;56.50;;;;;;3059169;19;5463;-81
2023/08/09 02:12:54;;;;;;;;;;;23.20;56.60;;;;;;3055594;19;6458;-81
2023/08/09 02:13:55;;;;;;;;;;;23.20;56.70;;;;;;3058205;19;5401;-79
2023/08/09 02:14:55;;;;;;;;;;;23.20;56.70;;;;;;3057590;19;4908;-79
2023/08/09 02:15:57;;;;;;;;;;;23.20;56.70;;;;;;3058672;19;4549;-79
2023/08/09 02:16:59;;;;;;;;;;;23.10;56.70;;;;;;3057733;19;5241;-81
2023/08/09 02:17:59;;;;;;;;;;;23.20;56.70;;;;;;3057585;19;6791;-80
2023/08/09 02:19:00;;;;;;;;;;;23.10;56.60;;;;;;3056780;19;5336;-80
2023/08/09 02:20:01;;;;;;;;;;;23.10;56.70;;;;;;3055218;19;5247;-78
2023/08/09 02:21:02;;;;;;;;;;;23.20;56.70;;;;;;3055598;19;4663;-80
2023/08/09 02:22:03;;;;;;;;;;;23.10;56.70;;;;;;3056826;19;4680;-79
2023/08/09 02:23:04;;;;;;;;;;;23.10;56.70;;;;;;3057119;19;5391;-79
2023/08/09 02:24:06;;;;;;;;;;;23.10;56.70;;;;;;3057601;19;4574;-79
2023/08/09 02:25:07;;;;;;;;;;;23.10;56.70;;;;;;3056688;19;12398;-80
2023/08/09 02:26:08;;;;;;;;;;;23.20;56.70;;;;;;3057029;19;4668;-79
2023/08/09 02:27:09;;;;;;;;;;;23.10;56.80;;;;;;3055907;19;5337;-81
2023/08/09 02:28:13;;;;;;;;;;;23.10;56.80;;;;;;3054557;19;5544;-71
2023/08/09 02:29:13;;;;;;;;;;;23.10;56.80;;;;;;3056235;19;5247;-79
2023/08/09 02:30:14;;;;;;;;;;;23.10;56.80;;;;;;3056332;19;4531;-79
2023/08/09 02:31:19;;;;;;;;;;;23.10;56.80;;;;;;3055099;19;5391;-80
2023/08/09 02:32:19;;;;;;;;;;;23.10;56.80;;;;;;3056823;19;5281;-80
2023/08/09 02:33:20;;;;;;;;;;;23.30;56.90;;;;;;3055007;19;6292;-79
2023/08/09 02:34:21;;;;;;;;;;;23.20;56.80;;;;;;3055774;19;4798;-80
2023/08/09 02:35:21;;;;;;;;;;;23.10;56.80;;;;;;3056410;19;4777;-80
2023/08/09 02:36:22;;;;;;;;;;;23.10;56.80;;;;;;3056988;19;4980;-80
2023/08/09 02:37:24;;;;;;;;;;;23.10;56.90;;;;;;3056951;19;5451;-81
2023/08/09 02:38:25;;;;;;;;;;;23.10;56.90;;;;;;3054864;19;5273;-82
2023/08/09 02:39:27;;;;;;;;;;;23.10;56.90;;;;;;3056768;19;5319;-81
2023/08/09 02:40:28;;;;;;;;;;;23.10;56.90;;;;;;3056378;19;5587;-79
2023/08/09 02:41:29;;;;;;;;;;;23.20;57.00;;;;;;3055855;19;5285;-80
2023/08/09 02:42:29;;;;;;;;;;;23.10;56.90;;;;;;3055130;19;4637;-80
2023/08/09 02:43:31;;;;;;;;;;;23.10;56.90;;;;;;3054460;19;4738;-80
2023/08/09 02:44:32;;;;;;;;;;;23.10;56.90;;;;;;3055693;19;5533;-82
2023/08/09 02:45:33;;;;;;;;;;;23.10;57.10;;;;;;3056339;19;5333;-79
2023/08/09 02:46:34;;;;;;;;;;;23.10;57.00;;;;;;3055969;19;5412;-80
2023/08/09 02:47:36;;;;;;;;;;;23.10;56.90;;;;;;3054376;19;4852;-78
2023/08/09 02:48:41;;;;;;;;;;;23.10;57.00;;;;;;3054490;19;5254;-79
2023/08/09 02:49:43;;;;;;;;;;;23.00;56.90;;;;;;3053391;19;5285;-81
2023/08/09 02:50:45;;;;;;;;;;;23.10;57.00;;;;;;3056017;19;5258;-79
2023/08/09 02:51:46;;;;;;;;;;;23.00;56.90;;;;;;3054167;19;5384;-82
2023/08/09 02:52:49;;;;;;;;;;;23.10;57.00;;;;;;3056410;19;5787;-82
2023/08/09 02:54:03;;;;;;;;;;;23.10;57.20;;;;;;3055479;19;6514;-84
2023/08/09 02:55:06;;;;;;;;;;;23.10;57.00;;;;;;3055228;19;5215;-82
2023/08/09 02:56:08;;;;;;;;;;;23.10;57.00;;;;;;3054174;19;5142;-80
2023/08/09 02:57:08;;;;;;;;;;;23.00;57.00;;;;;;3055309;19;4630;-83
2023/08/09 02:58:10;;;;;;;;;;;23.10;57.10;;;;;;3055637;19;1849;-74
2023/08/09 02:59:12;;;;;;;;;;;23.10;57.20;;;;;;3052724;19;5881;-73
2023/08/09 03:00:16;;;;;;;;;;;23.10;57.00;;;;;;3052006;19;5300;-75
2023/08/09 03:01:19;;;;;;;;;;;23.10;57.00;;;;;;3051834;19;4744;-74
2023/08/09 03:02:21;;;;;;;;;;;23.10;57.10;;;;;;3057280;19;4704;-74
2023/08/09 03:03:22;;;;;;;;;;;23.10;57.20;;;;;;3058289;19;4817;-76
2023/08/09 03:04:23;;;;;;;;;;;23.10;57.20;;;;;;3056288;19;5836;-74
2023/08/09 03:05:24;;;;;;;;;;;23.00;57.30;;;;;;3056060;19;5342;-71
2023/08/09 03:06:24;;;;;;;;;;;23.00;57.00;;;;;;3057276;19;5758;-74
2023/08/09 03:07:25;;;;;;;;;;;23.00;57.20;;;;;;3036228;19;5399;-74
2023/08/09 03:08:26;;;;;;;;;;;23.60;57.50;;;;;;3057510;19;5213;-71
2023/08/09 03:09:27;;;;;;;;;;;23.10;57.30;;;;;;3057593;19;5449;-72
2023/08/09 03:10:28;;;;;;;;;;;23.80;57.50;;;;;;3057975;19;4712;-74
2023/08/09 03:11:29;;;;;;;;;;;23.10;57.10;;;;;;3059141;19;5449;-69
2023/08/09 03:12:30;;;;;;;;;;;23.00;57.10;;;;;;3057199;19;5412;-71
2023/08/09 03:13:30;;;;;;;;;;;23.00;57.10;;;;;;3059296;19;5308;-71
2023/08/09 03:14:31;;;;;;;;;;;23.00;57.10;;;;;;3058254;19;5432;-70
2023/08/09 03:15:32;;;;;;;;;;;23.00;57.20;;;;;;3056073;19;5316;-69
2023/08/09 03:16:32;;;;;;;;;;;23.00;57.20;;;;;;3056147;19;5410;-69
2023/08/09 03:17:33;;;;;;;;;;;23.00;57.20;;;;;;3058569;19;4760;-69
2023/08/09 03:18:33;;;;;;;;;;;23.00;57.20;;;;;;3057142;19;5276;-70
2023/08/09 03:19:34;;;;;;;;;;;23.00;57.20;;;;;;3059744;19;5397;-70
2023/08/09 03:20:35;;;;;;;;;;;23.00;57.30;;;;;;3059582;19;5993;-70
2023/08/09 03:21:35;;;;;;;;;;;23.00;57.20;;;;;;3059482;19;5489;-70
2023/08/09 03:22:36;;;;;;;;;;;23.00;57.30;;;;;;3058734;19;5338;-70
2023/08/09 03:23:37;;;;;;;;;;;23.00;57.30;;;;;;3056828;19;5774;-70
2023/08/09 03:24:38;;;;;;;;;;;23.00;57.30;;;;;;3060354;19;5409;-70
2023/08/09 03:25:38;;;;;;;;;;;23.00;57.30;;;;;;3054490;19;5585;-69
2023/08/09 03:26:39;;;;;;;;;;;23.00;57.30;;;;;;3050956;19;6009;-71
2023/08/09 03:27:40;;;;;;;;;;;23.00;57.30;;;;;;3052894;19;5310;-70
2023/08/09 03:28:42;;;;;;;;;;;23.00;57.40;;;;;;3052456;19;4702;-70
2023/08/09 03:29:43;;;;;;;;;;;22.90;57.30;;;;;;3054534;19;5195;-71
2023/08/09 03:30:43;;;;;;;;;;;23.00;57.40;;;;;;3053642;19;4731;-71
2023/08/09 03:31:44;;;;;;;;;;;23.00;57.40;;;;;;3054073;19;5387;-71
2023/08/09 03:32:45;;;;;;;;;;;23.00;57.50;;;;;;3053767;19;4806;-71
2023/08/09 03:33:45;;;;;;;;;;;22.50;57.10;;;;;;3053812;19;5404;-71
2023/08/09 03:34:46;;;;;;;;;;;23.00;57.40;;;;;;3053897;19;4723;-71
2023/08/09 03:35:47;;;;;;;;;;;23.00;57.50;;;;;;3054719;19;5320;-70
2023/08/09 03:36:47;;;;;;;;;;;23.00;57.40;;;;;;3053690;19;5397;-70
2023/08/09 03:37:49;;;;;;;;;;;23.00;57.50;;;;;;3054854;19;5441;-70
2023/08/09 03:38:49;;;;;;;;;;;23.00;57.40;;;;;;3063851;19;6532;-72
2023/08/09 03:39:50;;;;;;;;;;;23.30;57.60;;;;;;3067656;19;5221;-74
2023/08/09 03:40:51;;;;;;;;;;;23.00;57.40;;;;;;3068645;19;5157;-74
2023/08/09 03:41:51;;;;;;;;;;;23.00;57.80;;;;;;3070896;19;5387;-75
2023/08/09 03:42:52;;;;;;;;;;;23.00;58.20;;;;;;3071902;19;4677;-75
2023/08/09 03:43:53;;;;;;;;;;;23.10;58.20;;;;;;3072280;19;5344;-74
2023/08/09 03:44:54;;;;;;;;;;;23.30;58.00;;;;;;3072401;19;5308;-74
2023/08/09 03:45:55;;;;;;;;;;;23.30;57.80;;;;;;3072004;19;4705;-74
2023/08/09 03:46:56;;;;;;;;;;;23.30;57.60;;;;;;3066589;19;4816;-73
2023/08/09 03:47:56;;;;;;;;;;;24.40;58.10;;;;;;3069582;19;5356;-74
2023/08/09 03:48:57;;;;;;;;;;;23.50;57.50;;;;;;3071786;19;5748;-74
2023/08/09 03:49:58;;;;;;;;;;;23.50;57.40;;;;;;3071812;19;4836;-73
2023/08/09 03:50:58;;;;;;;;;;;24.30;57.70;;;;;;3072371;19;5260;-74
2023/08/09 03:51:59;;;;;;;;;;;23.50;57.20;;;;;;3067807;19;4667;-74
2023/08/09 03:53:00;;;;;;;;;;;23.80;57.40;;;;;;3070138;19;4897;-74
2023/08/09 03:54:00;;;;;;;;;;;23.70;57.30;;;;;;3074411;19;5653;-75
2023/08/09 03:55:01;;;;;;;;;;;23.50;57.10;;;;;;3074185;19;6765;-73
2023/08/09 03:56:01;;;;;;;;;;;23.50;57.10;;;;;;3073256;19;4693;-73
2023/08/09 03:57:03;;;;;;;;;;;23.50;57.10;;;;;;3073506;19;5272;-72
2023/08/09 03:58:04;;;;;;;;;;;23.50;57.20;;;;;;3072569;19;4444;-72
2023/08/09 03:59:04;;;;;;;;;;;23.60;56.90;;;;;;3064838;19;5128;-72
2023/08/09 04:00:08;;;;;;;;;;;23.50;57.10;;;;;;3061463;19;5262;-73
2023/08/09 04:01:09;;;;;;;;;;;23.60;57.10;;;;;;3061402;19;5690;-72
2023/08/09 04:02:10;;;;;;;;;;;23.60;57.20;;;;;;3061349;19;5476;-73
2023/08/09 04:03:10;;;;;;;;;;;23.60;57.10;;;;;;3061045;19;5402;-73
2023/08/09 04:04:11;;;;;;;;;;;23.60;57.00;;;;;;3060725;19;5354;-73
2023/08/09 04:05:14;;;;;;;;;;;23.60;56.90;;;;;;3060625;19;5642;-72
2023/08/09 04:06:14;;;;;;;;;;;23.60;57.00;;;;;;3059675;19;5276;-73
2023/08/09 04:07:15;;;;;;;;;;;23.60;56.90;;;;;;3061145;19;5353;-73
2023/08/09 04:08:16;;;;;;;;;;;23.60;57.10;;;;;;3058641;19;5294;-74
2023/08/09 04:09:17;;;;;;;;;;;23.60;57.00;;;;;;3059794;19;5710;-73
2023/08/09 04:10:17;;;;;;;;;;;23.60;56.80;;;;;;3059254;19;5848;-73
2023/08/09 04:11:18;;;;;;;;;;;23.60;57.20;;;;;;3057801;19;5257;-73
2023/08/09 04:12:18;;;;;;;;;;;23.70;57.40;;;;;;3058827;19;5616;-73
2023/08/09 04:13:19;;;;;;;;;;;23.70;56.80;;;;;;3059972;19;5485;-73
2023/08/09 04:14:20;;;;;;;;;;;23.70;56.80;;;;;;3058610;19;5412;-72
2023/08/09 04:15:21;;;;;;;;;;;23.80;56.70;;;;;;3058060;19;5497;-72
2023/08/09 04:16:22;;;;;;;;;;;23.80;56.50;;;;;;3058155;19;6364;-74
2023/08/09 04:17:22;;;;;;;;;;;23.90;56.70;;;;;;3058264;19;5277;-72
2023/08/09 04:18:23;;;;;;;;;;;23.00;56.10;;;;;;3057994;19;5414;-82
2023/08/09 04:19:25;;;;;;;;;;;23.90;56.50;;;;;;3059713;19;4805;-82
2023/08/09 04:20:26;;;;;;;;;;;24.70;57.00;;;;;;3060257;19;5244;-83
2023/08/09 04:21:27;;;;;;;;;;;23.90;56.40;;;;;;3059775;19;4720;-83
2023/08/09 04:22:28;;;;;;;;;;;23.80;56.50;;;;;;3059054;19;5148;-83
2023/08/09 04:23:28;;;;;;;;;;;23.80;56.60;;;;;;3060431;19;6533;-83
2023/08/09 04:24:29;;;;;;;;;;;23.80;56.30;;;;;;3059960;19;4745;-82
2023/08/09 04:25:30;;;;;;;;;;;23.30;56.20;;;;;;3059427;19;4596;-83
2023/08/09 04:26:30;;;;;;;;;;;24.10;56.70;;;;;;3059772;19;6398;-82
2023/08/09 04:27:32;;;;;;;;;;;24.10;56.70;;;;;;3059987;19;5357;-81
2023/08/09 04:28:33;;;;;;;;;;;23.80;56.70;;;;;;3059792;19;5540;-82
2023/08/09 04:29:34;;;;;;;;;;;23.80;56.50;;;;;;3059008;19;5139;-82
2023/08/09 04:30:35;;;;;;;;;;;23.80;56.70;;;;;;3058440;19;4521;-82
2023/08/09 04:31:36;;;;;;;;;;;23.80;56.60;;;;;;3059522;19;5347;-82
2023/08/09 04:32:38;;;;;;;;;;;23.80;56.60;;;;;;3059653;19;5375;-82
2023/08/09 04:33:39;;;;;;;;;;;23.70;56.80;;;;;;3057590;19;5312;-83
2023/08/09 04:34:39;;;;;;;;;;;23.70;56.70;;;;;;3060310;19;5242;-82
2023/08/09 04:35:42;;;;;;;;;;;23.80;56.80;;;;;;3059403;19;5556;-82
2023/08/09 04:36:44;;;;;;;;;;;23.80;56.70;;;;;;3060317;19;5309;-83
2023/08/09 04:37:44;;;;;;;;;;;23.70;56.70;;;;;;3059343;19;5361;-82
2023/08/09 04:38:46;;;;;;;;;;;23.70;56.70;;;;;;3057871;19;4726;-82
2023/08/09 04:39:47;;;;;;;;;;;23.70;56.70;;;;;;3058181;19;5220;-83
2023/08/09 04:40:47;;;;;;;;;;;23.70;56.70;;;;;;3057945;19;4681;-83
2023/08/09 04:41:48;;;;;;;;;;;23.70;56.80;;;;;;3057398;19;5400;-83
2023/08/09 04:42:49;;;;;;;;;;;23.80;57.00;;;;;;3059045;19;5398;-81
2023/08/09 04:43:50;;;;;;;;;;;23.90;56.80;;;;;;3058247;19;4874;-83
2023/08/09 04:44:52;;;;;;;;;;;23.90;56.60;;;;;;3058735;19;4793;-83
2023/08/09 04:45:53;;;;;;;;;;;23.90;56.50;;;;;;3057363;19;4892;-82
2023/08/09 04:46:55;;;;;;;;;;;24.00;56.40;;;;;;3056686;19;5164;-83
2023/08/09 04:47:56;;;;;;;;;;;24.10;56.60;;;;;;3057155;19;5770;-82
2023/08/09 04:48:59;;;;;;;;;;;24.00;56.50;;;;;;3056080;19;5042;-69
2023/08/09 04:50:01;;;;;;;;;;;24.00;56.40;;;;;;3055153;19;5064;-70
2023/08/09 04:51:02;;;;;;;;;;;24.00;56.50;;;;;;3056966;19;5236;-71
2023/08/09 04:52:03;;;;;;;;;;;24.00;56.30;;;;;;3054979;19;4799;-70
2023/08/09 04:53:03;;;;;;;;;;;24.00;56.30;;;;;;3056811;19;5405;-70
2023/08/09 04:54:05;;;;;;;;;;;24.10;56.60;;;;;;3055149;19;5638;-70
2023/08/09 04:55:06;;;;;;;;;;;24.00;56.30;;;;;;3052806;19;5250;-70
2023/08/09 04:56:06;;;;;;;;;;;23.90;56.30;;;;;;3053779;19;4685;-69
2023/08/09 04:57:07;;;;;;;;;;;24.00;56.40;;;;;;3054932;19;5192;-70
2023/08/09 04:58:08;;;;;;;;;;;23.90;56.10;;;;;;3054480;19;6051;-70
2023/08/09 04:59:08;;;;;;;;;;;23.90;56.30;;;;;;3055530;19;846;-69
2023/08/09 05:00:13;;;;;;;;;;;24.00;56.40;;;;;;3050589;19;5664;-70
2023/08/09 05:01:14;;;;;;;;;;;24.00;56.50;;;;;;3054957;19;4925;-69
2023/08/09 05:02:14;;;;;;;;;;;23.90;56.30;;;;;;3055083;19;5249;-70
2023/08/09 05:03:15;;;;;;;;;;;24.00;56.70;;;;;;3054534;19;5366;-71
2023/08/09 05:04:16;;;;;;;;;;;24.10;56.40;;;;;;3054871;19;5294;-68
2023/08/09 05:05:16;;;;;;;;;;;23.90;56.50;;;;;;3054640;19;5286;-70
2023/08/09 05:06:17;;;;;;;;;;;23.20;56.10;;;;;;3054791;19;4719;-70
2023/08/09 05:07:19;;;;;;;;;;;23.90;56.50;;;;;;3053686;19;5459;-70
2023/08/09 05:08:20;;;;;;;;;;;23.90;56.50;;;;;;3053859;19;5436;-71
2023/08/09 05:09:22;;;;;;;;;;;23.90;56.70;;;;;;3054002;19;5392;-70
2023/08/09 05:10:22;;;;;;;;;;;23.90;56.60;;;;;;3053634;19;5250;-70
2023/08/09 05:11:23;;;;;;;;;;;23.60;56.40;;;;;;3054058;19;5256;-70
2023/08/09 05:12:24;;;;;;;;;;;23.90;56.60;;;;;;3050403;19;5256;-69
2023/08/09 05:13:25;;;;;;;;;;;23.90;56.70;;;;;;3052962;19;4648;-70
2023/08/09 05:14:26;;;;;;;;;;;23.90;56.80;;;;;;3053092;19;5098;-68
2023/08/09 05:15:27;;;;;;;;;;;23.90;56.70;;;;;;3054341;19;5271;-70
2023/08/09 05:16:27;;;;;;;;;;;23.80;56.70;;;;;;3053119;19;5325;-71
2023/08/09 05:17:28;;;;;;;;;;;23.80;56.80;;;;;;3054069;19;4926;-71
2023/08/09 05:18:29;;;;;;;;;;;23.80;56.60;;;;;;3053493;19;5251;-69
2023/08/09 05:19:29;;;;;;;;;;;23.90;56.90;;;;;;3054838;19;4763;-70
2023/08/09 05:20:30;;;;;;;;;;;24.00;56.60;;;;;;3051880;19;4868;-70
2023/08/09 05:21:30;;;;;;;;;;;23.60;56.00;;;;;;3050158;19;4672;-70
2023/08/09 05:22:31;;;;;;;;;;;24.00;56.60;;;;;;3049317;19;4916;-70
2023/08/09 05:23:32;;;;;;;;;;;24.10;56.40;;;;;;3048311;19;4801;-70
2023/08/09 05:24:32;;;;;;;;;;;24.10;56.30;;;;;;3051110;19;5442;-69
2023/08/09 05:25:33;;;;;;;;;;;24.10;56.20;;;;;;3050677;19;4716;-70
2023/08/09 05:26:34;;;;;;;;;;;24.10;56.30;;;;;;3051309;19;5168;-69
2023/08/09 05:27:34;;;;;;;;;;;23.80;56.00;;;;;;3050678;19;4685;-70
2023/08/09 05:28:35;;;;;;;;;;;24.10;56.30;;;;;;3051475;19;4642;-74
2023/08/09 05:29:37;;;;;;;;;;;24.10;56.00;;;;;;3051872;19;4589;-74
2023/08/09 05:30:39;;;;;;;;;;;24.10;56.20;;;;;;3052172;19;5373;-74
2023/08/09 05:31:40;;;;;;;;;;;24.10;56.30;;;;;;3051579;19;4694;-73
2023/08/09 05:32:41;;;;;;;;;;;24.10;56.40;;;;;;3051560;19;5435;-74
2023/08/09 05:33:41;;;;;;;;;;;24.10;56.30;;;;;;3052151;19;4804;-74
2023/08/09 05:34:42;;;;;;;;;;;24.10;56.20;;;;;;3051105;19;5118;-74
2023/08/09 05:35:43;;;;;;;;;;;24.10;56.00;;;;;;3051251;19;5847;-75
2023/08/09 05:36:45;;;;;;;;;;;24.10;56.20;;;;;;3051930;19;5293;-75
2023/08/09 05:37:47;;;;;;;;;;;24.10;56.20;;;;;;3051593;19;5921;-74
2023/08/09 05:38:48;;;;;;;;;;;24.00;56.10;;;;;;3051536;19;5957;-74
2023/08/09 05:39:50;;;;;;;;;;;24.10;56.20;;;;;;3052530;19;5730;-74
2023/08/09 05:40:50;;;;;;;;;;;24.10;56.10;;;;;;3052597;19;5366;-73
2023/08/09 05:41:51;;;;;;;;;;;24.10;56.10;;;;;;3051473;19;5763;-73
2023/08/09 05:42:53;;;;;;;;;;;24.10;56.10;;;;;;3050056;19;5171;-73
2023/08/09 05:43:54;;;;;;;;;;;24.10;56.10;;;;;;3051843;19;5238;-73
2023/08/09 05:44:55;;;;;;;;;;;24.10;56.10;;;;;;3050657;19;5333;-75
2023/08/09 05:45:55;;;;;;;;;;;24.10;56.10;;;;;;3051337;19;4684;-74
2023/08/09 05:46:56;;;;;;;;;;;24.10;55.90;;;;;;3051340;19;5392;-74
2023/08/09 05:47:56;;;;;;;;;;;24.10;55.80;;;;;;3052714;19;5402;-75
2023/08/09 05:48:57;;;;;;;;;;;24.10;55.70;;;;;;3051945;19;5270;-76
2023/08/09 05:49:58;;;;;;;;;;;24.00;55.80;;;;;;3051227;19;4662;-74
2023/08/09 05:50:58;;;;;;;;;;;24.00;55.80;;;;;;3051832;19;5365;-73
2023/08/09 05:52:00;;;;;;;;;;;24.00;55.60;;;;;;3051599;19;4799;-73
2023/08/09 05:53:00;;;;;;;;;;;24.00;55.70;;;;;;3051217;19;5272;-73
2023/08/09 05:54:01;;;;;;;;;;;24.00;55.70;;;;;;3052027;19;5395;-73
2023/08/09 05:55:03;;;;;;;;;;;24.00;55.70;;;;;;3052198;19;5355;-74
2023/08/09 05:56:03;;;;;;;;;;;23.90;55.70;;;;;;3051761;19;5336;-75
2023/08/09 05:57:04;;;;;;;;;;;23.90;55.70;;;;;;3052253;19;5291;-73
2023/08/09 05:58:05;;;;;;;;;;;23.90;55.50;;;;;;3051436;19;4589;-75
2023/08/09 05:59:06;;;;;;;;;;;23.90;55.70;;;;;;3052197;19;5363;-73
2023/08/09 06:00:11;;;;;;;;;;;23.90;55.60;;;;;;3052223;19;5573;-73
2023/08/09 06:01:12;;;;;;;;;;;23.90;55.30;;;;;;3049986;19;4017;-74
2023/08/09 06:02:12;;;;;;;;;;;23.90;55.50;;;;;;3051076;19;6578;-74
2023/08/09 06:03:13;;;;;;;;;;;23.80;55.40;;;;;;3051308;19;5454;-73